Mason City Municipal Airport
KMCW : now visible

Airfield :











YOU CAN JOIN US ON...

 
LOGIN :

Register | Disclaimer

   EN    FR    IT 

 









Legend :    VFR   Marginal VFR   IFR   Intensive IFR   Very Intensive IFR
Visi :
Ceiling :
>= 8 km
>= 3000ft
5 to 8 km
1000 to 3000 ft
1500m to 5 km
500 to 1000 ft
800 to 1500m
200 to 500 ft
< 800m
< 200 ft
Symbols :   Thunderstorms  Fog  Heavy snow  Heavy precipitations  Wind > 20 kt







- Airport Elevation : 1213 ft


KMCW - Mason City Municipal

CURRENT METAR :
  • 201953Z AUTO 15013G21KT 10SM FEW042 29/20 A3000 RMK AO2 SLP146 T02940200

EXPIRED METARs :
  • 201853Z AUTO 15013G20KT 10SM CLR 29/21 A3001 RMK AO2 SLP149 T02940206
  • 201753Z AUTO 16006KT 10SM CLR 29/21 A3003 RMK AO2 SLP157 T02890211 10289 20189 58014

TAF KMCW
Valid from the 20 at 20:00 until the 21 at 18:00 UTC


201950Z 2020/2118 16013G20KT P6SM FEW050
FM210100 16009KT P6SM FEW250
FM210900 17011KT P6SM BKN030
FM211100 17011KT 6SM BR VCSH BKN008
FM211600 18014G23KT P6SM OVC011
No reported NOTAMs for that airfield.



MET'MAP, your aeronautical weather chart ! - Copyright ORBIFLY December 2007 - Disclaimer

ORBIFLY MET'MAP TEAM :

Programming & Development : Alexandra Zaïnal
Concept & Development : Baudouin d'Aumeries
Co-Development & Prog : Marc-Olivier Méhu
Technical & hardware support : Manuel Goepfert

Contact : metmap@orbifly.com




SOURCES & CREDITS :

   NOAA       Earth
Advisory